sensor_id;sensor_type;location;lat;lon;timestamp;P1;durP1;ratioP1;P2;durP2;ratioP2
44446;SDS011;30152;52.066;5.358;2023-07-29T06:49:54;12.35;;;4.43;;
44446;SDS011;30152;52.066;5.358;2023-07-29T06:52:20;11.40;;;5.75;;
44446;SDS011;30152;52.066;5.358;2023-07-29T06:54:46;13.20;;;6.03;;
44446;SDS011;30152;52.066;5.358;2023-07-29T06:57:11;11.68;;;5.10;;
44446;SDS011;30152;52.066;5.358;2023-07-29T06:59:37;10.20;;;5.35;;
44446;SDS011;30152;52.066;5.358;2023-07-29T07:02:02;16.40;;;6.00;;
44446;SDS011;30152;52.066;5.358;2023-07-29T07:04:28;14.25;;;6.25;;
44446;SDS011;30152;52.066;5.358;2023-07-29T07:06:54;12.75;;;5.85;;
44446;SDS011;30152;52.066;5.358;2023-07-29T07:09:20;15.30;;;5.85;;
44446;SDS011;30152;52.066;5.358;2023-07-29T07:11:46;11.20;;;5.13;;
44446;SDS011;30152;52.066;5.358;2023-07-29T07:14:11;11.60;;;5.93;;
44446;SDS011;30152;52.066;5.358;2023-07-29T07:16:37;11.52;;;5.10;;
44446;SDS011;30152;52.066;5.358;2023-07-29T07:19:04;10.85;;;5.20;;
44446;SDS011;30152;52.066;5.358;2023-07-29T07:21:30;10.43;;;5.22;;
44446;SDS011;30152;52.066;5.358;2023-07-29T07:23:57;11.43;;;4.90;;
44446;SDS011;30152;52.066;5.358;2023-07-29T07:26:24;11.00;;;5.63;;
44446;SDS011;30152;52.066;5.358;2023-07-29T07:28:49;13.43;;;6.38;;
44446;SDS011;30152;52.066;5.358;2023-07-29T07:31:16;11.80;;;5.80;;
44446;SDS011;30152;52.066;5.358;2023-07-29T07:33:42;11.75;;;5.22;;
44446;SDS011;30152;52.066;5.358;2023-07-29T07:36:08;11.35;;;6.00;;
44446;SDS011;30152;52.066;5.358;2023-07-29T07:38:33;11.75;;;5.07;;
44446;SDS011;30152;52.066;5.358;2023-07-29T07:40:59;10.40;;;6.10;;
44446;SDS011;30152;52.066;5.358;2023-07-29T07:43:25;9.05;;;5.75;;
44446;SDS011;30152;52.066;5.358;2023-07-29T07:45:51;11.63;;;6.25;;
44446;SDS011;30152;52.066;5.358;2023-07-29T07:48:23;11.77;;;5.97;;
44446;SDS011;30152;52.066;5.358;2023-07-29T07:50:49;8.25;;;5.10;;
44446;SDS011;30152;52.066;5.358;2023-07-29T07:53:15;10.43;;;5.38;;
44446;SDS011;30152;52.066;5.358;2023-07-29T07:55:41;9.82;;;5.05;;
44446;SDS011;30152;52.066;5.358;2023-07-29T07:58:06;9.93;;;4.47;;
44446;SDS011;30152;52.066;5.358;2023-07-29T08:00:32;10.93;;;4.90;;
44446;SDS011;30152;52.066;5.358;2023-07-29T08:02:58;8.50;;;4.38;;
44446;SDS011;30152;52.066;5.358;2023-07-29T08:05:24;7.82;;;4.75;;
44446;SDS011;30152;52.066;5.358;2023-07-29T08:07:50;9.38;;;4.75;;
44446;SDS011;30152;52.066;5.358;2023-07-29T08:10:16;9.88;;;4.50;;
44446;SDS011;30152;52.066;5.358;2023-07-29T08:12:41;9.30;;;4.55;;
44446;SDS011;30152;52.066;5.358;2023-07-29T08:15:07;8.02;;;4.50;;
44446;SDS011;30152;52.066;5.358;2023-07-29T08:17:33;9.07;;;3.72;;
44446;SDS011;30152;52.066;5.358;2023-07-29T08:19:58;8.32;;;4.05;;
44446;SDS011;30152;52.066;5.358;2023-07-29T08:22:24;9.00;;;4.00;;
44446;SDS011;30152;52.066;5.358;2023-07-29T08:24:49;6.18;;;3.42;;
44446;SDS011;30152;52.066;5.358;2023-07-29T08:27:15;9.95;;;3.47;;
44446;SDS011;30152;52.066;5.358;2023-07-29T08:29:41;10.50;;;3.20;;
44446;SDS011;30152;52.066;5.358;2023-07-29T08:32:06;9.32;;;3.60;;
44446;SDS011;30152;52.066;5.358;2023-07-29T08:34:32;6.95;;;2.97;;
44446;SDS011;30152;52.066;5.358;2023-07-29T08:36:58;7.78;;;3.28;;
44446;SDS011;30152;52.066;5.358;2023-07-29T08:39:25;8.70;;;3.75;;
44446;SDS011;30152;52.066;5.358;2023-07-29T08:44:20;5.88;;;2.90;;
44446;SDS011;30152;52.066;5.358;2023-07-29T08:46:48;8.35;;;3.35;;
44446;SDS011;30152;52.066;5.358;2023-07-29T08:49:15;7.10;;;3.08;;
44446;SDS011;30152;52.066;5.358;2023-07-29T08:51:44;7.18;;;3.38;;
44446;SDS011;30152;52.066;5.358;2023-07-29T08:54:10;6.45;;;3.67;;
44446;SDS011;30152;52.066;5.358;2023-07-29T08:56:36;8.40;;;4.07;;
44446;SDS011;30152;52.066;5.358;2023-07-29T08:59:02;7.93;;;4.15;;
44446;SDS011;30152;52.066;5.358;2023-07-29T09:01:29;7.43;;;3.83;;
44446;SDS011;30152;52.066;5.358;2023-07-29T09:03:55;7.00;;;3.15;;
44446;SDS011;30152;52.066;5.358;2023-07-29T09:06:21;8.13;;;3.70;;
44446;SDS011;30152;52.066;5.358;2023-07-29T09:08:50;7.00;;;3.50;;
44446;SDS011;30152;52.066;5.358;2023-07-29T09:11:18;8.10;;;3.63;;
44446;SDS011;30152;52.066;5.358;2023-07-29T09:13:45;6.85;;;3.75;;
44446;SDS011;30152;52.066;5.358;2023-07-29T09:16:11;7.43;;;3.25;;
44446;SDS011;30152;52.066;5.358;2023-07-29T09:18:37;8.23;;;3.65;;
44446;SDS011;30152;52.066;5.358;2023-07-29T09:21:03;7.60;;;3.92;;
44446;SDS011;30152;52.066;5.358;2023-07-29T09:23:38;6.22;;;3.15;;
44446;SDS011;30152;52.066;5.358;2023-07-29T09:26:07;7.60;;;4.03;;
44446;SDS011;30152;52.066;5.358;2023-07-29T09:28:39;10.88;;;3.72;;
44446;SDS011;30152;52.066;5.358;2023-07-29T09:31:05;7.75;;;3.67;;
44446;SDS011;30152;52.066;5.358;2023-07-29T09:33:35;8.40;;;3.67;;
44446;SDS011;30152;52.066;5.358;2023-07-29T09:36:02;9.48;;;3.70;;
44446;SDS011;30152;52.066;5.358;2023-07-29T09:38:33;8.45;;;3.70;;
44446;SDS011;30152;52.066;5.358;2023-07-29T09:41:00;6.80;;;3.67;;
44446;SDS011;30152;52.066;5.358;2023-07-29T09:43:30;9.77;;;3.60;;
44446;SDS011;30152;52.066;5.358;2023-07-29T09:46:00;6.78;;;3.75;;
44446;SDS011;30152;52.066;5.358;2023-07-29T09:48:26;7.93;;;2.63;;
44446;SDS011;30152;52.066;5.358;2023-07-29T09:50:53;6.30;;;2.90;;
44446;SDS011;30152;52.066;5.358;2023-07-29T09:53:19;8.90;;;3.45;;
44446;SDS011;30152;52.066;5.358;2023-07-29T09:55:46;7.13;;;3.15;;
44446;SDS011;30152;52.066;5.358;2023-07-29T09:58:19;6.82;;;3.20;;
44446;SDS011;30152;52.066;5.358;2023-07-29T10:00:51;6.05;;;2.70;;
44446;SDS011;30152;52.066;5.358;2023-07-29T10:03:16;5.80;;;2.53;;
44446;SDS011;30152;52.066;5.358;2023-07-29T10:05:43;6.70;;;2.40;;
44446;SDS011;30152;52.066;5.358;2023-07-29T10:08:10;6.38;;;2.95;;
44446;SDS011;30152;52.066;5.358;2023-07-29T10:10:37;6.35;;;2.08;;
44446;SDS011;30152;52.066;5.358;2023-07-29T10:13:03;5.13;;;2.03;;
44446;SDS011;30152;52.066;5.358;2023-07-29T10:15:29;4.60;;;2.08;;
44446;SDS011;30152;52.066;5.358;2023-07-29T10:17:57;6.15;;;1.83;;
44446;SDS011;30152;52.066;5.358;2023-07-29T10:20:23;3.95;;;1.77;;
44446;SDS011;30152;52.066;5.358;2023-07-29T10:22:49;7.90;;;2.33;;
44446;SDS011;30152;52.066;5.358;2023-07-29T10:25:21;6.68;;;2.20;;
44446;SDS011;30152;52.066;5.358;2023-07-29T10:30:13;3.97;;;1.75;;
44446;SDS011;30152;52.066;5.358;2023-07-29T10:32:41;5.30;;;2.25;;
44446;SDS011;30152;52.066;5.358;2023-07-29T10:35:13;5.75;;;1.98;;
44446;SDS011;30152;52.066;5.358;2023-07-29T10:37:40;4.57;;;1.83;;
44446;SDS011;30152;52.066;5.358;2023-07-29T10:40:07;5.35;;;2.03;;
44446;SDS011;30152;52.066;5.358;2023-07-29T10:42:34;6.18;;;1.52;;
44446;SDS011;30152;52.066;5.358;2023-07-29T10:45:00;4.97;;;1.70;;
44446;SDS011;30152;52.066;5.358;2023-07-29T10:47:27;4.10;;;1.55;;
44446;SDS011;30152;52.066;5.358;2023-07-29T10:49:57;7.97;;;2.00;;
44446;SDS011;30152;52.066;5.358;2023-07-29T10:55:24;5.03;;;2.30;;
44446;SDS011;30152;52.066;5.358;2023-07-29T10:57:51;7.25;;;2.55;;
44446;SDS011;30152;52.066;5.358;2023-07-29T11:00:19;7.05;;;3.20;;
44446;SDS011;30152;52.066;5.358;2023-07-29T11:03:01;8.48;;;3.42;;
44446;SDS011;30152;52.066;5.358;2023-07-29T11:05:43;8.45;;;3.10;;
44446;SDS011;30152;52.066;5.358;2023-07-29T11:08:24;6.88;;;3.70;;
44446;SDS011;30152;52.066;5.358;2023-07-29T11:11:05;8.82;;;4.28;;
44446;SDS011;30152;52.066;5.358;2023-07-29T11:13:33;6.97;;;3.95;;
44446;SDS011;30152;52.066;5.358;2023-07-29T11:16:02;7.50;;;4.03;;
44446;SDS011;30152;52.066;5.358;2023-07-29T11:18:29;8.68;;;4.97;;
44446;SDS011;30152;52.066;5.358;2023-07-29T11:20:59;8.18;;;4.30;;
44446;SDS011;30152;52.066;5.358;2023-07-29T11:23:29;8.10;;;4.30;;
44446;SDS011;30152;52.066;5.358;2023-07-29T11:25:59;10.65;;;4.90;;
44446;SDS011;30152;52.066;5.358;2023-07-29T11:28:26;8.80;;;4.80;;
44446;SDS011;30152;52.066;5.358;2023-07-29T11:30:51;7.18;;;4.70;;
44446;SDS011;30152;52.066;5.358;2023-07-29T11:33:19;9.30;;;4.65;;
44446;SDS011;30152;52.066;5.358;2023-07-29T11:35:50;11.07;;;4.68;;
44446;SDS011;30152;52.066;5.358;2023-07-29T11:38:16;10.05;;;4.68;;
44446;SDS011;30152;52.066;5.358;2023-07-29T11:40:43;9.00;;;5.15;;
44446;SDS011;30152;52.066;5.358;2023-07-29T11:43:18;9.35;;;5.35;;
44446;SDS011;30152;52.066;5.358;2023-07-29T11:45:44;11.38;;;5.10;;
44446;SDS011;30152;52.066;5.358;2023-07-29T11:48:10;8.63;;;5.35;;
44446;SDS011;30152;52.066;5.358;2023-07-29T11:50:35;9.88;;;4.85;;
44446;SDS011;30152;52.066;5.358;2023-07-29T11:53:02;11.10;;;5.40;;
44446;SDS011;30152;52.066;5.358;2023-07-29T11:55:28;14.48;;;5.75;;
44446;SDS011;30152;52.066;5.358;2023-07-29T11:57:54;11.00;;;6.15;;
44446;SDS011;30152;52.066;5.358;2023-07-29T12:00:20;8.90;;;5.75;;
44446;SDS011;30152;52.066;5.358;2023-07-29T12:02:46;10.02;;;5.72;;
44446;SDS011;30152;52.066;5.358;2023-07-29T12:05:14;8.98;;;5.28;;
44446;SDS011;30152;52.066;5.358;2023-07-29T12:07:41;10.88;;;5.60;;
44446;SDS011;30152;52.066;5.358;2023-07-29T12:10:07;10.48;;;6.07;;
44446;SDS011;30152;52.066;5.358;2023-07-29T12:12:37;12.43;;;6.50;;
44446;SDS011;30152;52.066;5.358;2023-07-29T12:15:10;10.43;;;5.45;;
44446;SDS011;30152;52.066;5.358;2023-07-29T12:17:39;10.07;;;5.82;;
44446;SDS011;30152;52.066;5.358;2023-07-29T12:20:07;13.95;;;5.85;;
44446;SDS011;30152;52.066;5.358;2023-07-29T12:22:34;8.95;;;5.00;;
44446;SDS011;30152;52.066;5.358;2023-07-29T12:25:00;10.40;;;4.78;;
44446;SDS011;30152;52.066;5.358;2023-07-29T12:27:27;7.57;;;4.60;;
44446;SDS011;30152;52.066;5.358;2023-07-29T12:29:55;10.30;;;4.15;;
44446;SDS011;30152;52.066;5.358;2023-07-29T12:32:24;7.97;;;3.58;;
44446;SDS011;30152;52.066;5.358;2023-07-29T12:34:52;9.30;;;3.70;;
44446;SDS011;30152;52.066;5.358;2023-07-29T12:37:18;6.90;;;3.78;;
44446;SDS011;30152;52.066;5.358;2023-07-29T12:39:44;6.15;;;3.58;;
44446;SDS011;30152;52.066;5.358;2023-07-29T12:42:10;7.82;;;2.88;;
44446;SDS011;30152;52.066;5.358;2023-07-29T12:44:37;5.80;;;2.85;;
44446;SDS011;30152;52.066;5.358;2023-07-29T12:47:04;5.57;;;3.05;;
44446;SDS011;30152;52.066;5.358;2023-07-29T12:49:31;5.10;;;2.70;;
44446;SDS011;30152;52.066;5.358;2023-07-29T12:51:57;5.90;;;2.72;;
44446;SDS011;30152;52.066;5.358;2023-07-29T12:54:24;6.15;;;2.50;;
44446;SDS011;30152;52.066;5.358;2023-07-29T12:56:49;4.35;;;2.10;;
44446;SDS011;30152;52.066;5.358;2023-07-29T12:59:16;5.22;;;2.03;;
44446;SDS011;30152;52.066;5.358;2023-07-29T13:01:42;6.57;;;1.98;;
44446;SDS011;30152;52.066;5.358;2023-07-29T13:04:08;4.68;;;1.67;;
44446;SDS011;30152;52.066;5.358;2023-07-29T13:06:34;6.55;;;1.88;;
44446;SDS011;30152;52.066;5.358;2023-07-29T13:09:00;4.82;;;2.22;;
44446;SDS011;30152;52.066;5.358;2023-07-29T13:11:25;4.55;;;1.95;;
44446;SDS011;30152;52.066;5.358;2023-07-29T13:13:51;4.93;;;1.77;;
44446;SDS011;30152;52.066;5.358;2023-07-29T13:16:17;4.60;;;1.65;;
44446;SDS011;30152;52.066;5.358;2023-07-29T13:18:43;2.95;;;1.25;;
44446;SDS011;30152;52.066;5.358;2023-07-29T13:21:09;4.40;;;1.83;;
44446;SDS011;30152;52.066;5.358;2023-07-29T13:23:35;3.70;;;1.35;;
44446;SDS011;30152;52.066;5.358;2023-07-29T13:26:01;4.05;;;1.50;;
44446;SDS011;30152;52.066;5.358;2023-07-29T13:28:27;4.68;;;1.73;;
44446;SDS011;30152;52.066;5.358;2023-07-29T13:30:52;3.88;;;1.50;;
44446;SDS011;30152;52.066;5.358;2023-07-29T13:33:18;5.03;;;1.60;;
44446;SDS011;30152;52.066;5.358;2023-07-29T13:35:44;3.92;;;1.40;;
44446;SDS011;30152;52.066;5.358;2023-07-29T13:38:10;4.18;;;1.70;;
44446;SDS011;30152;52.066;5.358;2023-07-29T13:40:36;4.63;;;1.70;;
44446;SDS011;30152;52.066;5.358;2023-07-29T13:43:01;7.15;;;1.80;;
44446;SDS011;30152;52.066;5.358;2023-07-29T13:45:27;4.93;;;1.75;;
44446;SDS011;30152;52.066;5.358;2023-07-29T13:47:53;6.88;;;2.03;;
44446;SDS011;30152;52.066;5.358;2023-07-29T13:50:18;8.88;;;2.20;;
44446;SDS011;30152;52.066;5.358;2023-07-29T13:52:44;3.83;;;1.85;;
44446;SDS011;30152;52.066;5.358;2023-07-29T13:55:10;4.55;;;1.95;;
44446;SDS011;30152;52.066;5.358;2023-07-29T13:57:36;4.47;;;2.03;;
44446;SDS011;30152;52.066;5.358;2023-07-29T14:00:03;7.25;;;2.60;;
44446;SDS011;30152;52.066;5.358;2023-07-29T14:02:29;4.78;;;2.30;;
44446;SDS011;30152;52.066;5.358;2023-07-29T14:04:56;4.32;;;2.30;;
44446;SDS011;30152;52.066;5.358;2023-07-29T14:07:22;6.10;;;1.90;;
44446;SDS011;30152;52.066;5.358;2023-07-29T14:09:48;4.47;;;2.03;;
44446;SDS011;30152;52.066;5.358;2023-07-29T14:12:14;6.25;;;2.75;;
44446;SDS011;30152;52.066;5.358;2023-07-29T14:14:41;4.95;;;1.90;;
44446;SDS011;30152;52.066;5.358;2023-07-29T14:17:07;5.57;;;1.75;;
44446;SDS011;30152;52.066;5.358;2023-07-29T14:19:33;3.90;;;1.77;;
44446;SDS011;30152;52.066;5.358;2023-07-29T14:21:59;3.90;;;1.67;;
44446;SDS011;30152;52.066;5.358;2023-07-29T14:24:25;4.40;;;1.40;;
44446;SDS011;30152;52.066;5.358;2023-07-29T14:26:51;5.20;;;1.70;;
44446;SDS011;30152;52.066;5.358;2023-07-29T14:29:17;4.13;;;1.50;;
44446;SDS011;30152;52.066;5.358;2023-07-29T14:31:43;4.30;;;1.63;;
44446;SDS011;30152;52.066;5.358;2023-07-29T14:34:09;3.13;;;1.23;;
44446;SDS011;30152;52.066;5.358;2023-07-29T14:36:35;3.90;;;1.40;;
44446;SDS011;30152;52.066;5.358;2023-07-29T14:39:01;2.40;;;1.00;;
44446;SDS011;30152;52.066;5.358;2023-07-29T14:41:27;3.33;;;1.00;;
44446;SDS011;30152;52.066;5.358;2023-07-29T14:43:53;3.65;;;1.20;;
44446;SDS011;30152;52.066;5.358;2023-07-29T14:46:19;2.70;;;0.93;;
44446;SDS011;30152;52.066;5.358;2023-07-29T14:48:44;4.55;;;1.00;;
44446;SDS011;30152;52.066;5.358;2023-07-29T14:51:12;4.10;;;1.30;;
44446;SDS011;30152;52.066;5.358;2023-07-29T14:53:37;3.47;;;1.00;;
44446;SDS011;30152;52.066;5.358;2023-07-29T14:56:03;2.88;;;0.73;;
44446;SDS011;30152;52.066;5.358;2023-07-29T14:58:29;2.92;;;0.90;;
44446;SDS011;30152;52.066;5.358;2023-07-29T15:00:55;2.65;;;0.70;;
44446;SDS011;30152;52.066;5.358;2023-07-29T15:03:23;3.20;;;1.00;;
44446;SDS011;30152;52.066;5.358;2023-07-29T15:05:49;4.38;;;0.85;;
44446;SDS011;30152;52.066;5.358;2023-07-29T15:08:15;3.55;;;0.90;;
44446;SDS011;30152;52.066;5.358;2023-07-29T15:10:40;2.78;;;0.90;;
44446;SDS011;30152;52.066;5.358;2023-07-29T15:13:06;4.00;;;0.85;;
44446;SDS011;30152;52.066;5.358;2023-07-29T15:15:32;3.45;;;1.00;;
44446;SDS011;30152;52.066;5.358;2023-07-29T15:17:57;3.40;;;0.80;;
44446;SDS011;30152;52.066;5.358;2023-07-29T15:20:23;4.80;;;1.00;;
44446;SDS011;30152;52.066;5.358;2023-07-29T15:22:49;2.83;;;0.85;;
44446;SDS011;30152;52.066;5.358;2023-07-29T15:25:15;3.38;;;0.90;;
44446;SDS011;30152;52.066;5.358;2023-07-29T15:27:40;5.28;;;0.90;;
44446;SDS011;30152;52.066;5.358;2023-07-29T15:30:06;3.33;;;0.73;;
44446;SDS011;30152;52.066;5.358;2023-07-29T15:32:32;5.85;;;1.23;;
44446;SDS011;30152;52.066;5.358;2023-07-29T15:34:58;4.25;;;1.20;;
44446;SDS011;30152;52.066;5.358;2023-07-29T15:37:27;4.60;;;1.10;;
44446;SDS011;30152;52.066;5.358;2023-07-29T15:39:53;5.28;;;0.90;;
44446;SDS011;30152;52.066;5.358;2023-07-29T15:42:19;4.43;;;1.65;;
44446;SDS011;30152;52.066;5.358;2023-07-29T15:44:44;6.38;;;2.53;;
44446;SDS011;30152;52.066;5.358;2023-07-29T15:47:10;7.65;;;2.28;;
44446;SDS011;30152;52.066;5.358;2023-07-29T15:49:40;9.55;;;2.42;;
44446;SDS011;30152;52.066;5.358;2023-07-29T15:52:06;8.38;;;2.72;;
44446;SDS011;30152;52.066;5.358;2023-07-29T15:54:33;10.40;;;2.78;;
44446;SDS011;30152;52.066;5.358;2023-07-29T15:56:59;9.88;;;2.40;;
44446;SDS011;30152;52.066;5.358;2023-07-29T15:59:25;8.45;;;2.60;;
44446;SDS011;30152;52.066;5.358;2023-07-29T16:01:51;7.07;;;2.72;;
44446;SDS011;30152;52.066;5.358;2023-07-29T16:04:17;7.90;;;2.95;;
44446;SDS011;30152;52.066;5.358;2023-07-29T16:06:42;6.75;;;2.70;;
44446;SDS011;30152;52.066;5.358;2023-07-29T16:09:08;10.10;;;2.97;;
44446;SDS011;30152;52.066;5.358;2023-07-29T16:11:34;7.78;;;2.92;;
44446;SDS011;30152;52.066;5.358;2023-07-29T16:14:00;8.55;;;2.67;;
44446;SDS011;30152;52.066;5.358;2023-07-29T16:16:27;10.75;;;3.67;;
44446;SDS011;30152;52.066;5.358;2023-07-29T16:18:53;8.45;;;2.85;;
44446;SDS011;30152;52.066;5.358;2023-07-29T16:21:18;10.02;;;3.53;;
44446;SDS011;30152;52.066;5.358;2023-07-29T16:23:44;5.85;;;2.53;;
44446;SDS011;30152;52.066;5.358;2023-07-29T16:26:09;5.50;;;2.20;;
44446;SDS011;30152;52.066;5.358;2023-07-29T16:28:37;5.03;;;2.28;;
44446;SDS011;30152;52.066;5.358;2023-07-29T16:31:03;5.82;;;2.78;;
44446;SDS011;30152;52.066;5.358;2023-07-29T16:33:30;6.78;;;3.25;;
44446;SDS011;30152;52.066;5.358;2023-07-29T16:35:55;6.32;;;2.72;;
44446;SDS011;30152;52.066;5.358;2023-07-29T16:38:21;7.57;;;2.95;;
44446;SDS011;30152;52.066;5.358;2023-07-29T16:40:47;7.28;;;2.75;;
44446;SDS011;30152;52.066;5.358;2023-07-29T16:43:13;7.45;;;2.78;;
44446;SDS011;30152;52.066;5.358;2023-07-29T16:45:39;5.85;;;2.78;;
44446;SDS011;30152;52.066;5.358;2023-07-29T16:48:05;6.68;;;2.83;;
44446;SDS011;30152;52.066;5.358;2023-07-29T16:50:30;6.97;;;2.67;;
44446;SDS011;30152;52.066;5.358;2023-07-29T16:52:56;6.03;;;2.72;;
44446;SDS011;30152;52.066;5.358;2023-07-29T16:55:23;5.70;;;2.95;;
44446;SDS011;30152;52.066;5.358;2023-07-29T16:57:49;6.05;;;3.13;;
44446;SDS011;30152;52.066;5.358;2023-07-29T17:00:15;6.65;;;3.28;;
44446;SDS011;30152;52.066;5.358;2023-07-29T17:02:41;7.32;;;3.85;;
44446;SDS011;30152;52.066;5.358;2023-07-29T17:05:07;9.18;;;3.85;;
44446;SDS011;30152;52.066;5.358;2023-07-29T17:07:33;9.27;;;4.25;;
44446;SDS011;30152;52.066;5.358;2023-07-29T17:09:59;8.95;;;4.22;;
44446;SDS011;30152;52.066;5.358;2023-07-29T17:12:25;6.97;;;4.20;;
44446;SDS011;30152;52.066;5.358;2023-07-29T17:14:50;9.68;;;4.85;;
44446;SDS011;30152;52.066;5.358;2023-07-29T17:17:16;9.20;;;4.55;;
44446;SDS011;30152;52.066;5.358;2023-07-29T17:19:41;8.73;;;4.25;;
44446;SDS011;30152;52.066;5.358;2023-07-29T17:22:09;7.88;;;4.22;;
44446;SDS011;30152;52.066;5.358;2023-07-29T17:24:35;9.23;;;4.65;;
44446;SDS011;30152;52.066;5.358;2023-07-29T17:27:01;8.93;;;4.68;;
44446;SDS011;30152;52.066;5.358;2023-07-29T17:29:26;9.82;;;4.10;;
44446;SDS011;30152;52.066;5.358;2023-07-29T17:31:52;9.85;;;4.20;;
44446;SDS011;30152;52.066;5.358;2023-07-29T17:34:18;6.30;;;3.75;;
44446;SDS011;30152;52.066;5.358;2023-07-29T17:36:45;7.13;;;3.58;;
44446;SDS011;30152;52.066;5.358;2023-07-29T17:39:11;7.13;;;3.90;;
44446;SDS011;30152;52.066;5.358;2023-07-29T17:41:37;6.45;;;3.63;;
44446;SDS011;30152;52.066;5.358;2023-07-29T17:44:03;8.45;;;3.85;;
44446;SDS011;30152;52.066;5.358;2023-07-29T17:46:29;5.70;;;3.58;;
44446;SDS011;30152;52.066;5.358;2023-07-29T17:48:55;7.95;;;4.03;;
44446;SDS011;30152;52.066;5.358;2023-07-29T17:51:20;7.00;;;3.53;;
44446;SDS011;30152;52.066;5.358;2023-07-29T17:53:46;7.40;;;3.50;;
44446;SDS011;30152;52.066;5.358;2023-07-29T17:56:12;5.97;;;3.40;;
44446;SDS011;30152;52.066;5.358;2023-07-29T17:58:38;9.38;;;3.30;;
44446;SDS011;30152;52.066;5.358;2023-07-29T18:01:03;6.43;;;2.97;;
44446;SDS011;30152;52.066;5.358;2023-07-29T18:03:29;7.60;;;2.80;;
44446;SDS011;30152;52.066;5.358;2023-07-29T18:05:55;8.50;;;3.10;;
44446;SDS011;30152;52.066;5.358;2023-07-29T18:08:21;7.07;;;3.10;;
44446;SDS011;30152;52.066;5.358;2023-07-29T18:10:47;7.95;;;2.80;;
44446;SDS011;30152;52.066;5.358;2023-07-29T18:13:14;5.30;;;2.22;;
44446;SDS011;30152;52.066;5.358;2023-07-29T18:15:40;13.50;;;2.20;;
44446;SDS011;30152;52.066;5.358;2023-07-29T18:18:06;6.13;;;1.95;;
44446;SDS011;30152;52.066;5.358;2023-07-29T18:20:32;8.18;;;2.10;;
44446;SDS011;30152;52.066;5.358;2023-07-29T18:23:00;6.50;;;2.22;;
44446;SDS011;30152;52.066;5.358;2023-07-29T18:25:29;12.77;;;1.75;;
44446;SDS011;30152;52.066;5.358;2023-07-29T18:27:56;9.75;;;2.42;;
44446;SDS011;30152;52.066;5.358;2023-07-29T18:30:22;7.97;;;2.20;;
44446;SDS011;30152;52.066;5.358;2023-07-29T18:32:48;8.93;;;2.03;;
44446;SDS011;30152;52.066;5.358;2023-07-29T18:35:14;10.73;;;2.20;;
44446;SDS011;30152;52.066;5.358;2023-07-29T18:37:42;7.93;;;2.00;;
44446;SDS011;30152;52.066;5.358;2023-07-29T18:40:11;7.78;;;1.92;;
44446;SDS011;30152;52.066;5.358;2023-07-29T18:42:38;10.88;;;2.50;;
44446;SDS011;30152;52.066;5.358;2023-07-29T18:45:04;7.95;;;2.58;;
44446;SDS011;30152;52.066;5.358;2023-07-29T18:47:30;10.57;;;2.50;;
44446;SDS011;30152;52.066;5.358;2023-07-29T18:49:56;8.38;;;2.05;;
44446;SDS011;30152;52.066;5.358;2023-07-29T18:52:23;10.32;;;2.13;;
44446;SDS011;30152;52.066;5.358;2023-07-29T18:54:49;12.23;;;2.70;;
44446;SDS011;30152;52.066;5.358;2023-07-29T18:57:16;10.20;;;2.47;;
44446;SDS011;30152;52.066;5.358;2023-07-29T18:59:42;11.27;;;2.50;;
44446;SDS011;30152;52.066;5.358;2023-07-29T19:02:07;6.70;;;1.95;;
44446;SDS011;30152;52.066;5.358;2023-07-29T19:04:33;9.75;;;2.40;;
44446;SDS011;30152;52.066;5.358;2023-07-29T19:06:59;10.10;;;2.42;;
44446;SDS011;30152;52.066;5.358;2023-07-29T19:09:24;7.72;;;2.33;;
44446;SDS011;30152;52.066;5.358;2023-07-29T19:11:51;9.70;;;2.40;;
44446;SDS011;30152;52.066;5.358;2023-07-29T19:14:17;8.35;;;2.13;;
44446;SDS011;30152;52.066;5.358;2023-07-29T19:16:43;7.50;;;2.50;;
44446;SDS011;30152;52.066;5.358;2023-07-29T19:19:08;10.13;;;2.60;;
44446;SDS011;30152;52.066;5.358;2023-07-29T19:21:34;10.57;;;2.10;;
44446;SDS011;30152;52.066;5.358;2023-07-29T19:24:00;7.90;;;2.25;;
44446;SDS011;30152;52.066;5.358;2023-07-29T19:26:25;12.63;;;2.22;;
44446;SDS011;30152;52.066;5.358;2023-07-29T19:28:51;7.72;;;2.13;;
44446;SDS011;30152;52.066;5.358;2023-07-29T19:31:18;8.52;;;1.85;;
44446;SDS011;30152;52.066;5.358;2023-07-29T19:33:44;7.65;;;2.50;;
44446;SDS011;30152;52.066;5.358;2023-07-29T19:36:10;7.55;;;1.88;;
44446;SDS011;30152;52.066;5.358;2023-07-29T19:38:36;10.65;;;3.10;;
44446;SDS011;30152;52.066;5.358;2023-07-29T19:41:01;12.00;;;2.35;;
44446;SDS011;30152;52.066;5.358;2023-07-29T19:43:27;8.73;;;2.80;;
44446;SDS011;30152;52.066;5.358;2023-07-29T19:45:55;12.05;;;2.63;;
44446;SDS011;30152;52.066;5.358;2023-07-29T19:48:21;7.82;;;2.40;;
44446;SDS011;30152;52.066;5.358;2023-07-29T19:50:47;9.07;;;2.58;;
44446;SDS011;30152;52.066;5.358;2023-07-29T19:53:13;13.43;;;2.60;;
44446;SDS011;30152;52.066;5.358;2023-07-29T19:55:39;11.60;;;2.35;;
44446;SDS011;30152;52.066;5.358;2023-07-29T19:58:05;10.60;;;2.50;;
44446;SDS011;30152;52.066;5.358;2023-07-29T20:00:30;8.98;;;2.78;;
44446;SDS011;30152;52.066;5.358;2023-07-29T20:02:57;11.98;;;2.63;;
44446;SDS011;30152;52.066;5.358;2023-07-29T20:05:23;10.63;;;2.42;;
44446;SDS011;30152;52.066;5.358;2023-07-29T20:07:51;9.88;;;2.47;;
44446;SDS011;30152;52.066;5.358;2023-07-29T20:10:16;10.75;;;3.03;;
44446;SDS011;30152;52.066;5.358;2023-07-29T20:12:42;11.98;;;2.72;;
44446;SDS011;30152;52.066;5.358;2023-07-29T20:15:08;9.43;;;2.38;;
44446;SDS011;30152;52.066;5.358;2023-07-29T20:17:34;8.27;;;2.53;;
44446;SDS011;30152;52.066;5.358;2023-07-29T20:20:00;10.05;;;2.40;;
44446;SDS011;30152;52.066;5.358;2023-07-29T20:22:26;10.50;;;2.50;;
44446;SDS011;30152;52.066;5.358;2023-07-29T20:24:52;8.23;;;2.13;;
44446;SDS011;30152;52.066;5.358;2023-07-29T20:27:18;12.95;;;3.13;;
44446;SDS011;30152;52.066;5.358;2023-07-29T20:29:43;10.88;;;2.63;;
44446;SDS011;30152;52.066;5.358;2023-07-29T20:32:09;10.55;;;2.30;;
44446;SDS011;30152;52.066;5.358;2023-07-29T20:34:35;10.30;;;2.60;;
44446;SDS011;30152;52.066;5.358;2023-07-29T20:37:01;14.80;;;2.70;;
44446;SDS011;30152;52.066;5.358;2023-07-29T20:39:27;9.35;;;2.63;;
44446;SDS011;30152;52.066;5.358;2023-07-29T20:41:54;9.48;;;2.88;;
44446;SDS011;30152;52.066;5.358;2023-07-29T20:44:19;14.00;;;2.80;;
44446;SDS011;30152;52.066;5.358;2023-07-29T20:46:45;11.65;;;3.00;;
44446;SDS011;30152;52.066;5.358;2023-07-29T20:49:13;11.60;;;3.05;;
44446;SDS011;30152;52.066;5.358;2023-07-29T20:51:39;11.68;;;2.53;;
44446;SDS011;30152;52.066;5.358;2023-07-29T20:54:05;12.15;;;2.65;;
44446;SDS011;30152;52.066;5.358;2023-07-29T20:56:30;15.27;;;2.67;;
44446;SDS011;30152;52.066;5.358;2023-07-29T20:58:56;7.85;;;1.90;;
44446;SDS011;30152;52.066;5.358;2023-07-29T21:01:22;13.50;;;2.20;;
44446;SDS011;30152;52.066;5.358;2023-07-29T21:03:48;9.60;;;2.08;;
44446;SDS011;30152;52.066;5.358;2023-07-29T21:06:14;9.07;;;1.80;;
44446;SDS011;30152;52.066;5.358;2023-07-29T21:08:40;6.80;;;1.85;;
44446;SDS011;30152;52.066;5.358;2023-07-29T21:11:06;12.68;;;1.90;;
44446;SDS011;30152;52.066;5.358;2023-07-29T21:13:31;6.13;;;1.45;;
44446;SDS011;30152;52.066;5.358;2023-07-29T21:15:57;12.23;;;1.85;;
44446;SDS011;30152;52.066;5.358;2023-07-29T21:18:23;11.10;;;1.73;;
44446;SDS011;30152;52.066;5.358;2023-07-29T21:20:49;23.10;;;2.50;;
44446;SDS011;30152;52.066;5.358;2023-07-29T21:23:16;8.70;;;1.85;;
44446;SDS011;30152;52.066;5.358;2023-07-29T21:25:49;5.97;;;1.42;;
44446;SDS011;30152;52.066;5.358;2023-07-29T21:28:16;6.60;;;1.63;;
44446;SDS011;30152;52.066;5.358;2023-07-29T21:30:42;4.85;;;1.40;;
44446;SDS011;30152;52.066;5.358;2023-07-29T21:33:11;10.57;;;1.55;;
44446;SDS011;30152;52.066;5.358;2023-07-29T21:35:37;10.68;;;1.95;;